Forside
METAR-TAF:

METAR-TAF

Lufthavne :

Stauning Lufthavn

Ringkøbing-Skjern, Danmark

Breddekreds: 56-00N, længdekreds: 008-21E, højde: 5 m

Aktuelle vejr

Denne rapport blev lavet for 12 timer og 28 minutter siden, kl. 13:50 UTC
Vind 18 kt fra vest
Temperatur 12°C
Fugtighed 88%
Tryk 1019 hPa
Sigt 10 km eller mere
Spredte skyer i en højde af 2500 ft
Brudte skyer i en højde af 4000 ft

METAR: EKVJ 241350Z 28018KT 9999 SCT025 BKN040 12/10 Q1019

Tid: 04:18 (02:18 UTC)

Vejrudsigter

Denne rapport blev lavet for 17 timer og 20 minutter siden, kl. 08:58 UTC
Foreløbig gælder fra 24 på 09 UTC til 24 på 15 UTC
Vind 18 kt fra vest
Sigt 10 km eller mere
Brudte skyer i en højde af 2000 ft
Midlertidig
fra 24 på 09 UTC til 24 på 15 UTC
Vind 20 kt fra vest med vindstød på up til 30 kt
Spredte skyer i en højde af 1500 ft, Optårnet Cumulus.

TAF: EKVJ 240858Z 2409/2415 27018KT 9999 BKN020 TEMPO 2409/2415 27020G30KT SCT015TCU

Vejrobservationer og prognoser fra mere end 4000 lufthavne (METAR og TAF).

De gule og røde prikker repræsenterer de meteorologiske stationer.

Flyt musen over at se navnet på stationen.

Så klik over at se vejr observationer og prognoser.

At skifte det kort: Klik på de grønne knapper med et sort kors for at zoome ind; på den grønne knap med en bindestreg for at zoome ud; eller på de grønne pile for tilstødende kort.


METAR-TAF: